Station: Gove Airport  

  Atmospheric Gas Attenuation - ITU Rec 676-11   ----------------- dB/100km -----------------
Date Time Temp RH % AH g/m3 Dew Point Wind Direction Speed kph Gust kph Barometer mB Rainfall Since 9am 24GHz 47GHz 76GHz 122GHz 134GHz 241GHz
08/05 05:40 24.7 84 19.01 21.8 13 15 1010.8 0.2 41.0 40.1 77.4 204.7 225.5 783.1
08/05 05:30 24.7 85 19.24 22 13 17 1010.8 0.2 41.5 40.5 78.5 207.7 229.0 795.5
08/05 05:20 24.8 84 19.12 21.9 15 17 1010.7 0.2 41.3 40.3 77.8 205.8 226.8 787.9
08/05 05:10 24.7 85 19.24 22 13 15 1010.7 0.2 41.5 40.5 78.5 207.6 229.0 795.4
08/05 05:00 24.8 84 19.12 21.9 13 17 1010.7 0.2 41.3 40.3 77.8 205.8 226.8 787.9
08/05 04:50 24.6 85 19.13 21.9 11 13 1010.7 0.2 41.3 40.4 78.1 206.5 227.6 790.5
08/05 04:40 24.7 84 19.01 21.8 11 13 1010.7 0.2 41.0 40.1 77.4 204.7 225.4 783.0
08/05 04:30 24.7 84 19.01 21.8 13 17 1010.6 0.2 41.0 40.1 77.4 204.7 225.4 783.0
08/05 04:20 24.8 84 19.12 21.9 13 13 1010.6 0.2 41.3 40.3 77.8 205.8 226.8 787.9
08/05 04:10 24.6 85 19.13 21.9 13 13 1010.5 0.2 41.3 40.4 78.0 206.5 227.6 790.4
08/05 04:00 24.7 85 19.24 22 13 17 1010.6 0.2 41.5 40.5 78.5 207.6 229.0 795.4
08/05 03:50 24.8 85 19.35 22.1 11 13 1010.6 0.2 41.7 40.7 78.9 208.8 230.4 800.3
08/05 03:40 24.8 85 19.35 22.1 15 17 1010.7 0.2 41.7 40.7 78.9 208.8 230.4 800.4
08/05 03:30 24.9 85 19.46 22.2 15 20 1010.7 0.2 42.0 40.9 79.3 209.9 231.8 805.3
08/05 03:20 25 85 19.57 22.3 15 17 1010.7 0.2 42.2 41.0 79.7 211.0 233.2 810.2
08/05 03:10 25.2 84 19.55 22.3 17 20 1010.9 0.2 42.1 40.9 79.4 210.2 232.3 807.0
08/05 03:00 25.2 84 19.55 22.3 17 20 1010.9 0.2 42.1 40.9 79.4 210.2 232.3 807.0
08/05 02:50 25.2 84 19.55 22.3 17 17 1011 0.2 42.1 40.9 79.5 210.2 232.3 807.1
08/05 02:40 25.2 84 19.55 22.3 15 15 1011.1 0.2 42.1 40.9 79.5 210.3 232.4 807.2
08/05 02:30 25.3 84 19.66 22.4 17 20 1011 0.2 42.3 41.1 79.9 211.4 233.8 812.0
08/05 02:20 25.6 82 19.52 22.3 19 22 1011.1 0.2 42.0 40.6 78.9 208.8 230.7 801.3
08/05 02:10 25.4 83 19.54 22.3 17 19 1011.2 0.2 42.1 40.8 79.2 209.6 231.6 804.5
08/05 02:00 25.5 83 19.65 22.4 17 22 1011.4 0.2 42.3 41.0 79.6 210.7 233.0 809.5
08/05 01:50 25.5 83 19.65 22.4 19 20 1011.5 0.2 42.3 41.0 79.6 210.8 233.0 809.6
08/05 01:40 25.4 84 19.78 22.5 17 19 1011.5 0.2 42.6 41.3 80.4 212.7 235.4 817.7
08/05 01:30 25.5 83 19.65 22.4 20 28 1011.4 0.2 42.3 41.0 79.6 210.7 233.0 809.5
08/05 01:20 25.6 83 19.76 22.5 20 24 1011.5 0.2 42.5 41.1 80.1 211.9 234.4 814.5
08/05 01:10 25.6 83 19.76 22.5 19 22 1011.6 0.2 42.5 41.1 80.1 211.9 234.5 814.5
08/05 01:00 25.5 83 19.65 22.4 19 28 1011.7 0.2 42.3 41.0 79.7 210.8 233.1 809.7
08/05 00:50 25.5 83 19.65 22.4 20 24 1011.7 0.2 42.3 41.0 79.7 210.8 233.1 809.7
08/05 00:40 25.7 83 19.87 22.6 19 19 1011.9 0.2 42.7 41.3 80.5 213.1 235.9 819.6
08/05 00:30 25.7 83 19.87 22.6 19 24 1011.8 0.2 42.7 41.3 80.5 213.0 235.9 819.5
08/05 00:20 25.7 82 19.63 22.4 19 22 1011.9 0.2 42.2 40.8 79.4 210.0 232.2 806.6
08/05 00:10 25.7 82 19.63 22.4 19 20 1012 0.2 42.2 40.8 79.4 210.0 232.2 806.6
08/05 00:00 25.7 82 19.63 22.4 19 26 1012.1 0.2 42.2 40.9 79.4 210.0 232.2 806.7
07/05 23:50 25.9 81 19.61 22.4 22 24 1012.2 0.2 42.2 40.7 79.1 209.3 231.3 803.5
07/05 23:40 26 80 19.48 22.3 20 24 1012.3 0.2 41.9 40.4 78.4 207.4 229.0 795.5
07/05 23:30 26.1 80 19.59 22.4 22 28 1012.3 0.2 42.1 40.6 78.8 208.5 230.4 800.4
07/05 23:20 25.9 81 19.61 22.4 19 22 1012.3 0.2 42.2 40.7 79.1 209.3 231.3 803.6
07/05 23:10 26.1 80 19.59 22.4 20 24 1012.2 0.2 42.1 40.6 78.8 208.5 230.4 800.3
07/05 23:00 26.2 80 19.69 22.5 20 28 1012.3 0.2 42.3 40.7 79.2 209.4 231.6 804.7
07/05 22:50 26.3 80 19.8 22.6 24 30 1012.4 0.2 42.5 40.9 79.6 210.6 233.0 809.6
07/05 22:40 26.3 81 20.05 22.8 22 24 1012.6 0.2 43.1 41.4 80.8 213.8 236.9 823.2
07/05 22:30 26.3 80 19.8 22.6 22 30 1012.6 0.2 42.5 40.9 79.6 210.6 233.0 809.7
07/05 22:20 26.4 79 19.67 22.5 26 30 1012.7 0.2 42.2 40.6 78.9 208.7 230.7 801.7
07/05 22:10 26.4 79 19.67 22.5 22 24 1012.7 0.2 42.2 40.6 78.9 208.7 230.7 801.7
07/05 22:00 26.5 78 19.53 22.3 28 39 1012.6 0.2 41.9 40.3 78.1 206.7 228.3 793.1
07/05 21:50 26.4 79 19.67 22.5 22 26 1012.7 0.2 42.2 40.6 78.9 208.7 230.7 801.7
07/05 21:40 26.4 79 19.67 22.5 24 28 1012.7 0.2 42.2 40.6 78.9 208.7 230.7 801.7
07/05 21:30 26.5 80 20.03 22.8 24 33 1012.7 0.2 43.0 41.2 80.5 213.0 236.0 820.0
07/05 21:20 26.4 80 19.92 22.7 19 20 1012.7 0.2 42.8 41.1 80.1 211.9 234.6 815.1
07/05 21:10 26.4 80 19.92 22.7 22 24 1012.7 0.2 42.8 41.1 80.1 211.9 234.6 815.1
07/05 21:00 26.6 79 19.89 22.7 24 32 1012.8 0.2 42.7 40.9 79.7 210.9 233.5 811.4
07/05 20:50 26.5 79 19.78 22.6 28 32 1012.6 0.2 42.5 40.8 79.3 209.8 232.1 806.5
07/05 20:40 26.4 80 19.92 22.7 22 26 1012.6 0.2 42.8 41.1 80.1 211.8 234.6 815.1
07/05 20:30 26.4 79 19.67 22.5 20 35 1012.6 0.2 42.2 40.6 78.9 208.7 230.7 801.6
07/05 20:20 26.5 80 20.03 22.8 22 30 1012.4 0.2 43.0 41.2 80.5 212.9 235.9 819.8
07/05 20:10 26.6 80 20.14 22.9 22 26 1012.3 0.2 43.2 41.4 80.9 214.0 237.3 824.6
07/05 20:00 26.5 80 20.03 22.8 20 28 1012.2 0.2 43.0 41.2 80.4 212.9 235.9 819.7
07/05 19:50 26.6 80 20.14 22.9 24 24 1012.1 0.2 43.2 41.4 80.9 214.0 237.3 824.5
07/05 19:40 26.6 80 20.14 22.9 20 22 1011.9 0.2 43.2 41.4 80.8 213.9 237.3 824.4
07/05 19:30 26.5 79 19.78 22.6 20 28 1011.7 0.2 42.5 40.7 79.2 209.7 232.0 806.0
07/05 19:20 26.5 79 19.78 22.6 19 20 1011.6 0.2 42.5 40.7 79.2 209.6 232.0 805.9
07/05 19:10 26.5 78 19.53 22.3 20 22 1011.5 0.2 41.9 40.2 78.0 206.5 228.1 792.5
07/05 19:00 26.5 79 19.78 22.6 19 24 1011.5 0.2 42.5 40.7 79.2 209.6 231.9 805.9
07/05 18:50 26.5 79 19.78 22.6 19 19 1011.4 0.2 42.5 40.7 79.2 209.6 231.9 805.8
07/05 18:40 26.6 79 19.89 22.7 17 17 1011.3 0.2 42.7 40.9 79.6 210.7 233.3 810.6
07/05 18:30 26.7 78 19.74 22.5 17 24 1011.2 0.2 42.4 40.5 78.8 208.5 230.7 801.4
07/05 18:20 26.7 79 20 22.8 15 17 1011.1 0.2 42.9 41.0 80.0 211.8 234.6 815.3
07/05 18:10 26.8 78 19.85 22.6 17 20 1011 0.2 42.6 40.7 79.2 209.6 232.0 806.1
07/05 18:00 27 76 19.56 22.4 19 26 1010.9 0.2 41.9 40.0 77.6 205.4 226.9 788.6
07/05 17:50 27.2 75 19.52 22.4 22 26 1010.8 0.2 41.8 39.9 77.2 204.4 225.7 784.3
07/05 17:40 27.4 73 19.21 22.3 20 24 1010.8 0.2 41.2 39.2 75.6 200.0 220.5 766.1
07/05 17:30 27.7 74 19.8 22.6 22 30 1010.7 0.2 42.4 40.1 78.0 206.5 228.4 793.8
07/05 17:20 28 70 19.04 22.2 24 30 1010.5 0.2 40.7 38.6 74.2 196.4 216.1 751.1
07/05 17:10 28.2 72 19.8 22.7 24 28 1010.4 0.2 42.3 39.9 77.5 205.1 226.9 788.5
07/05 17:00 28.3 70 19.35 22.3 26 33 1010.3 0.2 41.4 39.0 75.3 199.3 219.8 764.0
07/05 16:50 27.8 72 19.37 22.3 26 30 1010.3 0.2 41.5 39.3 75.9 200.9 221.6 770.1
07/05 16:40 28.2 69 18.97 22 30 32 1010.1 0.2 40.6 38.4 73.7 195.0 214.5 745.4
07/05 16:30 28.7 71 20.06 22.9 24 32 1010.2 0.2 42.8 40.1 78.2 206.9 229.2 796.7
07/05 16:20 28.8 70 19.89 22.8 24 30 1010.2 0.2 42.5 39.8 77.3 204.5 226.4 786.8
07/05 16:10 28.6 68 19.11 22.3 26 28 1010.1 0.2 40.8 38.4 73.9 195.6 215.4 748.6
07/05 16:00 28.5 69 19.29 22.3 28 37 1010.2 0.2 41.2 38.8 74.8 198.0 218.4 758.9
07/05 15:50 28.7 68 19.22 22.4 30 33 1010.1 0.2 41.1 38.6 74.3 196.7 216.7 753.3
07/05 15:40 28.3 73 20.18 23 22 26 1010.2 0.2 43.1 40.5 79.1 209.4 232.3 807.2
07/05 15:30 28.2 73 20.07 22.9 26 35 1010.1 0.2 42.9 40.4 78.7 208.3 230.9 802.4
07/05 15:20 29.2 70 20.33 23.2 26 30 1010.1 0.2 43.3 40.4 78.9 208.8 231.7 805.5
07/05 15:10 29.4 68 19.96 22.9 22 24 1010.1 0.2 42.5 39.6 77.0 203.7 225.6 784.2
07/05 15:00 28.7 71 20.06 22.9 28 37 1010.1 0.2 42.8 40.1 78.1 206.8 229.2 796.7
07/05 14:50 29.9 70 21.12 23.8 22 26 1010.1 0.2 44.9 41.5 81.8 216.5 241.4 839.3
07/05 14:40 29.9 62 18.7 21.8 32 37 1010.1 0.2 39.8 37.1 70.9 187.5 205.9 715.6
07/05 14:30 29.6 63 18.7 21.8 28 39 1010.2 0.2 39.9 37.3 71.2 188.3 206.7 718.4
07/05 14:20 29 62 17.81 21.2 28 30 1010.3 0.2 38.1 36.0 67.8 179.4 195.6 679.8
07/05 14:10 30.1 62 18.91 22 30 35 1010.3 0.2 40.3 37.4 71.6 189.5 208.3 724.2
07/05 14:00 29 64 18.39 21.5 26 35 1010.5 0.2 39.3 37.0 70.4 186.2 203.9 708.7
07/05 13:50 29 62 17.81 21 33 39 1010.6 0.2 38.1 36.0 67.9 179.5 195.7 680.0
07/05 13:40 29.6 60 17.81 21 26 30 1010.7 0.2 38.0 35.7 67.3 178.1 194.1 674.8
07/05 13:30 29 62 17.81 21 30 43 1010.8 0.2 38.1 36.0 67.9 179.5 195.7 680.1
07/05 13:20 30 61 18.5 21.7 35 39 1010.9 0.2 39.4 36.8 70.0 185.1 202.9 705.1
07/05 13:10 29.3 66 19.27 22.3 32 35 1011 0.2 41.1 38.4 74.0 195.9 215.9 750.4

Last Refresh: 08-May-2026 05:53:40

Bureau of Meteorology